Preview of NWS' New Version of Forecast
This preview is not operational and should not be used for support decisions.

Terminal Aerodrome Forecast (TAF)

Issued by National Weather Service (NWS)

                            
000
FTUS43 KDMX 181724
TAFALO
TAF
KALO 181724Z 1818/1918 VRB05KT P6SM SCT035 BKN070
      TEMPO 1818/1821 6SM -TSRA BR BKN040CB
     FM182300 16008KT P6SM BKN050
     FM191000 15004KT 6SM -SHRA BR VCTS SCT025 BKN040CB=